Avior — T8A2553 — position and weather

sailwx.info

Track history (hours):
 
Tides and Currents Weather Stations Pressure Air Temp Water Temp Dewpoint Dewpoint Depression Visibility Wind Speed Wind Dir Waves Ship Positions

Avior

Last reported at 2018-Jun-16 00:57 UTC. Time now 2018-Aug-16 08:01 UTC.
Position N 45°19' E 036°32'.
Warning: this ship's position is months out of date.

Length 108 m; draft 3.4 m.

Type: Cargo ship. MMSI: 511470000.

Date/timePositionNaut miles runAvg speedWind from/ knotsBaromVisibWave heightAir tempDewpointWater temp
2018-Jun-16 00:57N 45°19' E 036°32'3 6.9
2018-Jun-16 00:30N 45°20' E 036°36'3 6.6
2018-Jun-16 00:00N 45°21' E 036°40'2 4.9
2018-Jun-15 23:31N 45°23' E 036°41'0 0.0
2018-Jun-15 23:00N 45°23' E 036°41'0 0.1
2018-Jun-15 22:30N 45°23' E 036°41'2 3.9
2018-Jun-15 22:00N 45°25' E 036°41'4 7.5
2018-Jun-15 21:30N 45°29' E 036°43'  
2018-Jun-07 12:21N 45°28' E 036°43'3 7.5
2018-Jun-07 12:00N 45°26' E 036°43'4 7.6
2018-Jun-07 11:31N 45°22' E 036°40'3 5.6
2018-Jun-07 11:00N 45°20' E 036°38'3 5.7
2018-Jun-07 10:30N 45°19' E 036°34'4 5.9
2018-Jun-07 09:45N 45°17' E 036°29'2 5.8
2018-Jun-07 09:29N 45°15' E 036°29'2 2.8
2018-Jun-07 08:47N 45°14' E 036°30'0 0.1
2018-Jun-07 08:31N 45°14' E 036°30'0 0.0
2018-Jun-07 07:02N 45°14' E 036°30'0 0.0
2018-Jun-07 06:50N 45°14' E 036°30'0 0.0
2018-Jun-07 06:29N 45°14' E 036°30'0 0.0
2018-Jun-07 05:47N 45°14' E 036°30'0 0.0
2018-Jun-07 05:29N 45°14' E 036°30'  
Track history (hours):
 
Tides and Currents Weather Stations Pressure Air Temp Water Temp Dewpoint Dewpoint Depression Visibility Wind Speed Wind Dir Waves Ship Positions

Avior

Last reported at 2018-Jun-16 00:57 UTC. Time now 2018-Aug-16 08:01 UTC.
Position N 45°19' E 036°32'.
Warning: this ship's position is months out of date.

Length 108 m; draft 3.4 m.

Type: Cargo ship. MMSI: 511470000.

Date/timePositionNaut miles runAvg speedWind from/ knotsBaromVisibWave heightAir tempDewpointWater temp
2018-Jun-16 00:57N 45°19' E 036°32'3 6.9
2018-Jun-16 00:30N 45°20' E 036°36'3 6.6
2018-Jun-16 00:00N 45°21' E 036°40'2 4.9
2018-Jun-15 23:31N 45°23' E 036°41'0 0.0
2018-Jun-15 23:00N 45°23' E 036°41'0 0.1
2018-Jun-15 22:30N 45°23' E 036°41'2 3.9
2018-Jun-15 22:00N 45°25' E 036°41'4 7.5
2018-Jun-15 21:30N 45°29' E 036°43'  
2018-Jun-07 12:21N 45°28' E 036°43'3 7.5
2018-Jun-07 12:00N 45°26' E 036°43'4 7.6
2018-Jun-07 11:31N 45°22' E 036°40'3 5.6
2018-Jun-07 11:00N 45°20' E 036°38'3 5.7
2018-Jun-07 10:30N 45°19' E 036°34'4 5.9
2018-Jun-07 09:45N 45°17' E 036°29'2 5.8
2018-Jun-07 09:29N 45°15' E 036°29'2 2.8
2018-Jun-07 08:47N 45°14' E 036°30'0 0.1
2018-Jun-07 08:31N 45°14' E 036°30'0 0.0
2018-Jun-07 07:02N 45°14' E 036°30'0 0.0
2018-Jun-07 06:50N 45°14' E 036°30'0 0.0
2018-Jun-07 06:29N 45°14' E 036°30'0 0.0
2018-Jun-07 05:47N 45°14' E 036°30'0 0.0
2018-Jun-07 05:29N 45°14' E 036°30'  

Dump ship's entire track history